Time;durP1;ratioP1;P1;durP2;ratioP2;P2;SDS_P1;SDS_P2;PMS_P1;PMS_P2;Temp;Humidity;BMP_temperature;BMP_pressure;BME280_temperature;BME280_humidity;BME280_pressure;Samples;Min_cycle;Max_cycle;Signal;HPM_P1;HPM_P2
2022/06/07 00:01:04;;;;;;;;;;;;;;;21.83;30.87;97784.13;5013381;28;1097;-75
2022/06/07 00:03:30;;;;;;;;;;;;;;;22.02;31.09;97773.00;5013105;28;1903;-74
2022/06/07 00:05:55;;;;;;;;;;;;;;;22.11;31.59;97773.16;5013366;28;891;-75
2022/06/07 00:08:21;;;;;;;;;;;;;;;22.02;31.65;97779.50;5013342;28;1001;-75
2022/06/07 00:10:46;;;;;;;;;;;;;;;21.74;31.81;97786.03;5013314;28;978;-74
2022/06/07 00:13:12;;;;;;;;;;;;;;;21.57;31.38;97774.00;5013117;28;1000;-75
2022/06/07 00:15:40;;;;;;;;;;;;;;;21.66;31.21;97774.16;5013407;28;1135;-75
2022/06/07 00:18:06;;;;;;;;;;;;;;;21.75;30.74;97771.41;5013205;28;877;-75
2022/06/07 00:20:32;;;;;;;;;;;;;;;21.59;31.10;97768.69;5031541;28;964;-75
2022/06/07 00:22:58;;;;;;;;;;;;;;;21.48;31.03;97762.56;5048632;28;1965;-75
2022/06/07 00:25:23;;;;;;;;;;;;;;;21.75;30.85;97770.63;5038063;28;1018;-75
2022/06/07 00:27:49;;;;;;;;;;;;;;;21.56;30.99;97764.72;5056560;28;1172;-75
2022/06/07 00:30:14;;;;;;;;;;;;;;;21.46;30.94;97765.06;5036233;28;879;-74
2022/06/07 00:32:40;;;;;;;;;;;;;;;21.28;31.28;97766.31;5066246;28;942;-74
2022/06/07 00:35:05;;;;;;;;;;;;;;;21.51;31.11;97762.47;5059706;28;942;-75
2022/06/07 00:37:31;;;;;;;;;;;;;;;21.56;30.64;97764.72;5060012;28;1184;-75
2022/06/07 00:39:56;;;;;;;;;;;;;;;21.62;30.25;97767.00;5076248;28;1054;-74
2022/06/07 00:42:22;;;;;;;;;;;;;;;21.58;30.54;97767.91;5075896;28;1965;-75
2022/06/07 00:44:47;;;;;;;;;;;;;;;21.50;30.60;97771.38;5076419;28;1501;-74
2022/06/07 00:47:23;;;;;;;;;;;;;;;21.61;30.15;97765.41;5076376;28;1005;-75
2022/06/07 00:49:48;;;;;;;;;;;;;;;21.51;30.45;97761.66;5075945;28;963;-75
2022/06/07 00:52:15;;;;;;;;;;;;;;;21.49;30.25;97761.31;5075868;28;924;-75
2022/06/07 00:54:40;;;;;;;;;;;;;;;21.55;30.10;97765.16;5076120;28;1002;-74
2022/06/07 00:57:26;;;;;;;;;;;;;;;21.30;30.34;97761.06;5075631;28;898;-75
2022/06/07 00:59:51;;;;;;;;;;;;;;;21.56;30.10;97761.09;5076029;28;1194;-75
2022/06/07 01:02:18;;;;;;;;;;;;;;;21.66;29.64;97757.16;5060465;28;1910;-75
2022/06/07 01:04:44;;;;;;;;;;;;;;;21.56;29.78;97763.94;5042764;28;1106;-74
2022/06/07 01:12:43;;;;;;;;;;;;;;;21.41;30.18;97745.78;5045082;28;1287;-75
2022/06/07 01:15:12;;;;;;;;;;;;;;;21.50;29.69;97746.72;5061405;28;1143;-75
2022/06/07 01:17:39;;;;;;;;;;;;;;;21.39;29.88;97748.25;5077123;28;1531;-75
2022/06/07 01:20:05;;;;;;;;;;;;;;;21.43;29.89;97749.75;5076960;28;1082;-75
2022/06/07 01:22:31;;;;;;;;;;;;;;;21.44;29.75;97750.53;5058959;28;1914;-74
2022/06/07 01:24:56;;;;;;;;;;;;;;;21.60;29.61;97761.78;5058817;28;1237;-74
2022/06/07 01:27:22;;;;;;;;;;;;;;;21.49;29.50;97758.47;5075324;28;1126;-75
2022/06/07 01:29:47;;;;;;;;;;;;;;;21.37;29.61;97767.75;5058761;28;1236;-75
2022/06/07 01:32:15;;;;;;;;;;;;;;;21.43;29.47;97761.06;5042403;28;1583;-75
2022/06/07 01:34:42;;;;;;;;;;;;;;;21.59;29.34;97769.47;5038433;28;1513;-75
2022/06/07 01:37:08;;;;;;;;;;;;;;;21.50;29.42;97771.38;5055211;28;1048;-75
2022/06/07 01:42:18;;;;;;;;;;;;;;;21.41;29.30;97785.41;4937521;29;1977;-75
2022/06/07 01:44:44;;;;;;;;;;;;;;;21.45;29.21;97780.44;4899474;29;1200;-75
2022/06/07 01:47:11;;;;;;;;;;;;;;;21.74;29.83;97775.50;4899999;29;1190;-75
2022/06/07 01:49:43;;;;;;;;;;;;;;;21.95;30.55;97767.59;4880807;29;1169;-75
2022/06/07 01:52:08;;;;;;;;;;;;;;;22.10;30.75;97769.53;4843981;29;1027;-75
2022/06/07 01:54:38;;;;;;;;;;;;;;;22.11;30.78;97770.31;4828434;29;1123;-74
2022/06/07 01:57:05;;;;;;;;;;;;;;;21.76;30.67;97773.03;4825292;29;994;-75
2022/06/07 01:59:31;;;;;;;;;;;;;;;21.71;30.64;97782.09;4789847;29;1328;-74
2022/06/07 02:01:57;;;;;;;;;;;;;;;21.70;30.65;97779.69;4771295;30;1401;-75
2022/06/07 02:04:22;;;;;;;;;;;;;;;21.51;30.77;97778.66;4771338;30;1903;-75
2022/06/07 02:06:49;;;;;;;;;;;;;;;21.65;30.49;97783.88;4752628;30;1080;-75
2022/06/07 02:09:21;;;;;;;;;;;;;;;21.56;30.50;97786.59;4753811;30;1267;-75
2022/06/07 02:11:47;;;;;;;;;;;;;;;21.58;30.40;97795.41;4773686;30;1563;-75
2022/06/07 02:14:12;;;;;;;;;;;;;;;21.60;29.92;97804.25;4789242;30;1045;-75
2022/06/07 02:16:38;;;;;;;;;;;;;;;21.44;30.30;97801.50;4838216;29;1002;-75
2022/06/07 02:19:04;;;;;;;;;;;;;;;21.51;29.92;97806.97;4875551;29;1252;-74
2022/06/07 02:21:36;;;;;;;;;;;;;;;21.57;29.79;97805.16;4913965;29;1049;-75
2022/06/07 02:24:02;;;;;;;;;;;;;;;21.46;30.09;97799.03;4899483;29;1907;-74
2022/06/07 02:26:30;;;;;;;;;;;;;;;21.35;29.83;97788.00;4898741;29;1270;-75
2022/06/07 02:28:59;;;;;;;;;;;;;;;21.29;29.71;97795.41;4877390;29;1050;-75
2022/06/07 02:31:26;;;;;;;;;;;;;;;21.53;29.49;97793.13;4863680;29;1482;-74
2022/06/07 02:33:51;;;;;;;;;;;;;;;21.42;29.81;97792.66;4825164;29;1058;-75
2022/06/07 02:36:17;;;;;;;;;;;;;;;21.52;29.42;97791.56;4880044;29;1377;-75
2022/06/07 02:38:43;;;;;;;;;;;;;;;21.44;29.81;97793.00;4882159;29;1011;-75
2022/06/07 02:41:09;;;;;;;;;;;;;;;21.46;29.61;97793.38;4879863;29;1009;-75
2022/06/07 02:43:34;;;;;;;;;;;;;;;21.49;29.28;97792.44;4895226;29;1911;-75
2022/06/07 02:46:00;;;;;;;;;;;;;;;21.24;29.76;97793.13;4879961;29;979;-75
2022/06/07 02:48:25;;;;;;;;;;;;;;;21.35;29.72;97792.84;4897658;29;1277;-75
2022/06/07 02:50:54;;;;;;;;;;;;;;;21.40;29.27;97783.81;4861027;29;1277;-75
2022/06/07 02:53:20;;;;;;;;;;;;;;;21.41;29.52;97791.09;4861398;29;1004;-74
2022/06/07 02:55:47;;;;;;;;;;;;;;;21.30;29.18;97785.72;4846754;29;1051;-75
2022/06/07 02:58:20;;;;;;;;;;;;;;;21.41;29.06;97779.75;4842685;29;917;-75
2022/06/07 03:00:46;;;;;;;;;;;;;;;21.66;29.19;97774.16;4827915;29;1118;-75
2022/06/07 03:03:13;;;;;;;;;;;;;;;21.77;29.81;97780.28;4842522;29;1982;-74
2022/06/07 03:05:42;;;;;;;;;;;;;;;22.02;29.84;97773.00;4861185;29;1059;-74
2022/06/07 03:08:07;;;;;;;;;;;;;;;22.11;29.76;97767.50;4831020;29;1022;-75
2022/06/07 03:10:34;;;;;;;;;;;;;;;21.88;30.24;97770.66;4884147;29;1420;-75
2022/06/07 03:13:01;;;;;;;;;;;;;;;21.66;30.39;97774.16;4936317;29;1157;-75
2022/06/07 03:15:28;;;;;;;;;;;;;;;21.76;29.93;97773.03;4935951;29;1022;-75
2022/06/07 03:17:56;;;;;;;;;;;;;;;21.57;29.82;97771.19;4920584;29;1178;-74
2022/06/07 03:20:29;;;;;;;;;;;;;;;21.59;29.65;97774.34;4953725;28;1093;-75
2022/06/07 03:22:55;;;;;;;;;;;;;;;21.68;29.45;97773.69;5012851;28;1918;-75
2022/06/07 03:25:21;;;;;;;;;;;;;;;21.65;29.65;97771.75;5016769;28;1406;-74
2022/06/07 03:27:54;;;;;;;;;;;;;;;21.59;29.43;97774.34;5013595;28;1135;-75
2022/06/07 03:30:20;;;;;;;;;;;;;;;21.50;29.53;97782.69;5013294;28;1092;-74
2022/06/07 03:32:46;;;;;;;;;;;;;;;21.42;29.54;97784.19;4997210;28;1291;-74
2022/06/07 03:35:12;;;;;;;;;;;;;;;21.45;29.72;97786.09;4997048;28;1234;-75
2022/06/07 03:37:38;;;;;;;;;;;;;;;21.49;29.23;97786.78;4976013;28;1004;-74
2022/06/07 03:40:07;;;;;;;;;;;;;;;21.45;29.18;97797.41;4958107;28;1207;-75
2022/06/07 03:42:34;;;;;;;;;;;;;;;21.47;29.20;97786.44;4935464;29;1965;-74
2022/06/07 03:45:00;;;;;;;;;;;;;;;21.51;29.35;97790.75;4916609;29;1146;-75
2022/06/07 03:47:26;;;;;;;;;;;;;;;21.44;29.05;97784.50;4909611;29;2148;-75
2022/06/07 03:49:53;;;;;;;;;;;;;;;21.42;29.14;97789.84;4897154;29;2143;-74
2022/06/07 03:52:21;;;;;;;;;;;;;;;21.38;29.26;97794.78;4897689;29;1523;-74
2022/06/07 03:54:48;;;;;;;;;;;;;;;21.45;29.13;97791.75;4897693;29;1029;-75
2022/06/07 03:57:14;;;;;;;;;;;;;;;21.39;29.30;97796.38;4954601;28;1188;-75
2022/06/07 03:59:44;;;;;;;;;;;;;;;21.54;28.96;97789.06;4957145;28;1211;-74
2022/06/07 04:02:09;;;;;;;;;;;;;;;21.58;29.01;97795.41;4959089;29;1910;-74
2022/06/07 04:04:36;;;;;;;;;;;;;;;21.54;29.15;97789.06;4979461;28;1626;-75
2022/06/07 04:09:52;;;;;;;;;;;;;;;21.30;29.49;97780.88;4997732;28;1092;-74
2022/06/07 04:12:26;;;;;;;;;;;;;;;21.44;29.10;97778.84;5018823;28;1677;-74
2022/06/07 04:14:54;;;;;;;;;;;;;;;21.52;28.88;97771.75;5017853;28;1169;-74
2022/06/07 04:17:21;;;;;;;;;;;;;;;21.55;28.88;97770.81;5019935;28;1308;-75
2022/06/07 04:19:58;;;;;;;;;;;;;;;21.43;29.14;97774.44;5020217;28;997;-74
2022/06/07 04:22:24;;;;;;;;;;;;;;;21.38;29.10;97766.50;5036457;28;1906;-75
2022/06/07 04:24:58;;;;;;;;;;;;;;;21.40;29.29;97761.16;5020272;28;1625;-75
2022/06/07 04:27:24;;;;;;;;;;;;;;;21.19;29.50;97769.03;5013432;28;1912;-75
2022/06/07 04:29:53;;;;;;;;;;;;;;;21.84;29.43;97767.91;5015507;28;1246;-74
2022/06/07 04:32:25;;;;;;;;;;;;;;;21.93;29.62;97764.41;5000511;28;1285;-74
2022/06/07 04:34:53;;;;;;;;;;;;;;;22.18;29.73;97758.78;5036416;28;1215;-74
2022/06/07 04:44:08;;;;;;;;;;;;;;;21.57;30.08;97759.84;5016312;28;2000;-74
2022/06/07 04:46:34;;;;;;;;;;;;;;;21.56;30.12;97769.59;5030429;28;1398;-74
2022/06/07 04:49:03;;;;;;;;;;;;;;;21.54;29.89;97766.41;5055943;28;912;-75
2022/06/07 04:51:32;;;;;;;;;;;;;;;21.55;30.03;97768.81;5076001;28;1162;-74
2022/06/07 04:54:12;;;;;;;;;;;;;;;21.49;29.99;97773.41;5075804;28;1956;-74
2022/06/07 04:56:42;;;;;;;;;;;;;;;21.59;29.81;97774.34;5059371;28;1069;-75
2022/06/07 04:59:08;;;;;;;;;;;;;;;21.60;29.74;97775.94;5035805;28;1242;-74
2022/06/07 05:01:38;;;;;;;;;;;;;;;21.42;30.28;97772.84;5000188;28;1008;-74
2022/06/07 05:04:08;;;;;;;;;;;;;;;21.45;29.88;97774.75;5016112;28;1987;-75
2022/06/07 05:06:35;;;;;;;;;;;;;;;21.47;30.05;97775.13;4961791;28;1011;-74
2022/06/07 05:09:17;;;;;;;;;;;;;;;21.40;30.10;97769.66;4938351;29;1192;-75
2022/06/07 05:11:46;;;;;;;;;;;;;;;21.61;29.60;97776.75;4937840;29;1542;-74
2022/06/07 05:14:12;;;;;;;;;;;;;;;21.43;29.88;97772.41;4932972;29;976;-74
2022/06/07 05:16:42;;;;;;;;;;;;;;;21.35;30.30;97778.69;4881639;29;1259;-74
2022/06/07 05:19:11;;;;;;;;;;;;;;;21.40;30.17;97778.16;4900276;29;1111;-74
2022/06/07 05:21:37;;;;;;;;;;;;;;;21.57;30.47;97788.16;4900114;29;1000;-74
2022/06/07 05:24:03;;;;;;;;;;;;;;;21.80;30.41;97790.69;4916307;29;1985;-74
2022/06/07 05:26:44;;;;;;;;;;;;;;;22.17;30.00;97781.88;4900357;29;1442;-74
2022/06/07 05:29:14;;;;;;;;;;;;;;;21.71;30.41;97776.41;4900186;29;1206;-74
2022/06/07 05:31:41;;;;;;;;;;;;;;;21.70;30.43;97786.13;4902088;29;1516;-74
2022/06/07 05:34:08;;;;;;;;;;;;;;;21.64;30.61;97781.50;4894808;29;1012;-74
2022/06/07 05:36:36;;;;;;;;;;;;;;;21.59;30.60;97775.13;4924969;28;1188;-74
2022/06/07 05:39:04;;;;;;;;;;;;;;;21.51;30.65;97778.66;4977017;28;1721;-75
2022/06/07 05:41:32;;;;;;;;;;;;;;;21.38;30.82;97787.09;4976196;28;1303;-75
2022/06/07 05:44:06;;;;;;;;;;;;;;;21.32;31.01;97784.03;4958006;28;1973;-74
2022/06/07 05:46:36;;;;;;;;;;;;;;;21.47;30.96;97781.56;4957714;28;1977;-74
2022/06/07 05:49:23;;;;;;;;;;;;;;;21.53;30.67;97778.97;4960127;28;1842;-75
2022/06/07 05:52:03;;;;;;;;;;;;;;;21.58;30.72;97776.38;4976399;28;1140;-75
2022/06/07 05:54:29;;;;;;;;;;;;;;;21.48;30.57;97771.84;5011562;28;1764;-74
2022/06/07 05:56:55;;;;;;;;;;;;;;;21.68;30.47;97771.66;5014396;28;2473;-74
2022/06/07 05:59:21;;;;;;;;;;;;;;;21.57;30.64;97771.97;5010859;28;2104;-74
2022/06/07 06:01:48;;;;;;;;;;;;;;;21.58;30.31;97778.44;5017959;28;2214;-74
2022/06/07 06:04:14;;;;;;;;;;;;;;;21.94;30.74;97766.00;5035083;28;1914;-74
2022/06/07 06:06:45;;;;;;;;;;;;;;;22.06;31.10;97768.03;5026459;28;2119;-74
2022/06/07 06:11:58;;;;;;;;;;;;;;;21.88;30.83;97777.09;5050323;28;1821;-74
2022/06/07 06:14:33;;;;;;;;;;;;;;;21.66;31.16;97776.16;4994794;28;1669;-74
2022/06/07 06:17:04;;;;;;;;;;;;;;;21.65;31.05;97772.53;4995075;28;1159;-74
2022/06/07 06:19:40;;;;;;;;;;;;;;;21.60;30.95;97770.25;4997470;28;1376;-74
2022/06/07 06:22:06;;;;;;;;;;;;;;;21.69;30.58;97764.72;4981277;28;1318;-74
2022/06/07 06:24:35;;;;;;;;;;;;;;;22.10;32.16;97768.72;4977504;28;1976;-71
2022/06/07 06:27:04;;;;;;;;;;;;;;;22.30;34.75;97763.63;4976568;28;1186;-72
2022/06/07 06:29:37;;;;;;;;;;;;;;;22.80;34.55;97756.25;4976324;28;1083;-70
2022/06/07 06:32:04;;;;;;;;;;;;;;;23.02;35.53;97758.34;4976146;28;1083;-74
2022/06/07 06:34:30;;;;;;;;;;;;;;;23.23;35.14;97763.25;4976395;28;971;-75
2022/06/07 06:36:58;;;;;;;;;;;;;;;23.32;35.39;97754.81;4976487;28;983;-72
2022/06/07 06:39:27;;;;;;;;;;;;;;;23.25;35.51;97755.06;4974289;28;2242;-71
2022/06/07 06:41:54;;;;;;;;;;;;;;;23.25;36.23;97755.06;4994832;28;1603;-72
2022/06/07 06:44:31;;;;;;;;;;;;;;;23.48;35.18;97756.63;4978413;28;1910;-73
2022/06/07 06:46:59;;;;;;;;;;;;;;;23.55;35.12;97755.56;4978718;28;1214;-71
2022/06/07 06:49:24;;;;;;;;;;;;;;;23.61;34.96;97765.84;4978586;28;1097;-72
2022/06/07 06:51:51;;;;;;;;;;;;;;;23.42;35.22;97763.38;4978855;28;1272;-72
2022/06/07 06:54:23;;;;;;;;;;;;;;;23.40;34.96;97761.78;5035728;28;2027;-72
2022/06/07 06:56:57;;;;;;;;;;;;;;;23.47;34.73;97759.94;5037311;28;1770;-70
2022/06/07 06:59:26;;;;;;;;;;;;;;;23.57;35.15;97767.25;5083690;28;1925;-71
2022/06/07 07:01:56;;;;;;;;;;;;;;;23.36;35.27;97760.31;5083600;28;1064;-69
2022/06/07 07:04:24;;;;;;;;;;;;;;;23.51;35.10;97766.25;5097097;28;1914;-68
2022/06/07 07:06:51;;;;;;;;;;;;;;;23.36;35.39;97760.31;5096803;28;1600;-76
2022/06/07 07:09:20;;;;;;;;;;;;;;;23.94;34.92;97776.00;5051874;28;2198;-75
2022/06/07 07:11:49;;;;;;;;;;;;;;;24.08;34.27;97769.75;5035604;28;1197;-69
2022/06/07 07:14:19;;;;;;;;;;;;;;;24.29;34.05;97774.56;5017304;28;1309;-70
2022/06/07 07:16:47;;;;;;;;;;;;;;;24.07;34.10;97779.53;5017271;28;1482;-73
2022/06/07 07:19:13;;;;;;;;;;;;;;;24.04;33.82;97780.47;5013834;28;1876;-73
2022/06/07 07:21:39;;;;;;;;;;;;;;;23.79;34.03;97776.56;4999132;28;1753;-71
2022/06/07 07:24:11;;;;;;;;;;;;;;;23.90;34.03;97782.63;4973843;28;2100;-72
2022/06/07 07:26:42;;;;;;;;;;;;;;;23.80;34.51;97783.81;4941748;28;1903;-74
2022/06/07 07:29:07;;;;;;;;;;;;;;;23.84;34.58;97783.69;4948399;28;2104;-70
2022/06/07 07:31:36;;;;;;;;;;;;;;;24.16;34.31;97783.22;4967989;28;1800;-75
2022/06/07 07:34:07;;;;;;;;;;;;;;;23.91;33.74;97775.66;4974767;28;1119;-73
2022/06/07 07:36:33;;;;;;;;;;;;;;;24.10;34.05;97784.28;4958966;28;1106;-73
2022/06/07 07:38:58;;;;;;;;;;;;;;;24.00;34.00;97786.28;4958490;28;1196;-72
2022/06/07 07:41:24;;;;;;;;;;;;;;;23.92;33.75;97780.09;4972823;28;1126;-75
2022/06/07 07:43:52;;;;;;;;;;;;;;;23.65;34.28;97785.63;4958711;28;1997;-71
2022/06/07 07:46:21;;;;;;;;;;;;;;;24.07;34.03;97782.38;4952887;29;2203;-71
2022/06/07 07:48:47;;;;;;;;;;;;;;;24.20;33.28;97783.06;4935348;29;2768;-71
2022/06/07 07:51:19;;;;;;;;;;;;;;;24.00;33.24;97774.16;4938505;29;1809;-71
2022/06/07 07:53:48;;;;;;;;;;;;;;;24.22;32.94;97786.22;4936165;29;1367;-75
2022/06/07 07:56:15;;;;;;;;;;;;;;;24.30;33.53;97787.53;5030544;28;1513;-72
2022/06/07 07:58:44;;;;;;;;;;;;;;;24.06;33.22;97777.94;5031058;28;1869;-77
2022/06/07 08:01:14;;;;;;;;;;;;;;;24.27;33.08;97793.34;5047949;28;1955;-70
2022/06/07 08:03:40;;;;;;;;;;;;;;;24.07;33.62;97782.38;5007518;28;2031;-68
2022/06/07 08:06:08;;;;;;;;;;;;;;;24.27;32.88;97782.75;5038869;28;1213;-70
2022/06/07 08:08:33;;;;;;;;;;;;;;;24.24;32.76;97785.75;5013261;28;1205;-70
2022/06/07 08:10:59;;;;;;;;;;;;;;;24.14;33.15;97779.25;5019045;28;1918;-70
2022/06/07 08:13:24;;;;;;;;;;;;;;;24.26;33.15;97780.41;5064428;28;1649;-72
2022/06/07 08:15:50;;;;;;;;;;;;;;;24.17;33.13;97778.31;5056349;28;1010;-71
2022/06/07 08:18:15;;;;;;;;;;;;;;;24.11;33.26;97775.28;5070983;28;1927;-71
2022/06/07 08:20:41;;;;;;;;;;;;;;;23.68;34.11;97776.19;5066910;28;1770;-69
2022/06/07 08:23:07;;;;;;;;;;;;;;;24.13;33.64;97777.66;5072342;28;1914;-72
2022/06/07 08:25:32;;;;;;;;;;;;;;;24.39;33.49;97784.72;5073333;28;948;-72
2022/06/07 08:27:58;;;;;;;;;;;;;;;24.22;33.50;97791.91;5075441;28;1029;-75
2022/06/07 08:30:24;;;;;;;;;;;;;;;24.60;32.75;97787.94;5075858;28;939;-82
2022/06/07 08:32:49;;;;;;;;;;;;;;;24.47;32.82;97790.91;5054602;28;1912;-74
2022/06/07 08:38:02;;;;;;;;;;;;;;;23.84;32.04;97778.81;5055271;28;2352;-74
2022/06/07 08:40:35;;;;;;;;;;;;;;;23.65;32.09;97782.78;5055295;28;897;-73
2022/06/07 08:43:11;;;;;;;;;;;;;;;23.70;31.55;97779.34;5055050;28;1977;-74
2022/06/07 08:45:37;;;;;;;;;;;;;;;23.62;31.50;97773.13;5071098;28;1487;-73
2022/06/07 08:48:07;;;;;;;;;;;;;;;23.54;30.85;97782.38;5059175;28;833;-74
2022/06/07 08:50:32;;;;;;;;;;;;;;;23.50;30.86;97776.84;5090953;28;975;-74
2022/06/07 08:53:00;;;;;;;;;;;;;;;23.43;30.42;97771.44;5058540;28;1879;-74
2022/06/07 08:55:33;;;;;;;;;;;;;;;23.48;30.49;97785.03;5091050;28;909;-74
2022/06/07 08:57:59;;;;;;;;;;;;;;;23.32;30.42;97765.38;5096334;28;997;-74
2022/06/07 09:00:26;;;;;;;;;;;;;;;23.39;30.03;97785.75;5055873;28;1143;-74
2022/06/07 09:02:54;;;;;;;;;;;;;;;23.22;30.04;97784.38;5055722;28;1971;-74
2022/06/07 09:05:19;;;;;;;;;;;;;;;23.22;30.12;97772.22;5056081;28;981;-74
2022/06/07 09:07:45;;;;;;;;;;;;;;;23.23;29.97;97773.81;4996532;28;1980;-74
2022/06/07 09:12:57;;;;;;;;;;;;;;;23.21;29.68;97768.59;4996653;28;1004;-74
2022/06/07 09:15:23;;;;;;;;;;;;;;;23.18;29.68;97772.34;4996481;28;1097;-74
2022/06/07 09:17:51;;;;;;;;;;;;;;;23.23;29.41;97768.91;4979725;28;2084;-74
2022/06/07 09:20:21;;;;;;;;;;;;;;;23.26;29.17;97768.00;4960027;28;2091;-74
2022/06/07 09:22:55;;;;;;;;;;;;;;;23.10;29.49;97768.19;4976163;28;2096;-74
2022/06/07 09:25:23;;;;;;;;;;;;;;;23.31;28.98;97760.91;4972803;28;2375;-74
2022/06/07 09:27:48;;;;;;;;;;;;;;;23.16;29.35;97762.69;4972380;28;2067;-76
2022/06/07 09:30:19;;;;;;;;;;;;;;;22.86;30.11;97762.94;4924635;28;1483;-70
2022/06/07 09:32:45;;;;;;;;;;;;;;;23.46;31.15;97778.22;4976929;28;1100;-71
2022/06/07 09:35:22;;;;;;;;;;;;;;;23.55;30.94;97772.59;4975677;28;1939;-72
2022/06/07 09:37:58;;;;;;;;;;;;;;;23.44;31.55;97773.00;4981747;28;948;-75
2022/06/07 09:40:31;;;;;;;;;;;;;;;23.69;31.14;97771.31;5014686;28;1050;-69
2022/06/07 09:42:58;;;;;;;;;;;;;;;23.53;31.75;97764.56;4996254;28;1981;-70
2022/06/07 09:45:28;;;;;;;;;;;;;;;23.51;31.98;97774.78;4995405;28;2124;-69
2022/06/07 09:47:54;;;;;;;;;;;;;;;23.68;31.67;97769.72;4995917;28;1536;-71
2022/06/07 09:50:22;;;;;;;;;;;;;;;23.54;31.92;97771.03;4980291;28;1078;-71
2022/06/07 09:52:49;;;;;;;;;;;;;;;23.31;32.22;97770.25;5000608;28;1008;-71
2022/06/07 09:55:17;;;;;;;;;;;;;;;23.54;31.93;97768.97;5031809;28;2087;-72
2022/06/07 09:57:47;;;;;;;;;;;;;;;23.59;32.28;97767.59;5059146;28;932;-71
2022/06/07 10:00:17;;;;;;;;;;;;;;;23.91;31.56;97761.47;5090253;28;975;-72
2022/06/07 10:02:49;;;;;;;;;;;;;;;23.82;31.75;97767.09;5077576;28;1906;-81
2022/06/07 10:05:23;;;;;;;;;;;;;;;23.43;31.90;97759.28;5092022;28;2742;-78
2022/06/07 10:07:52;;;;;;;;;;;;;;;23.36;31.67;97755.47;5103758;28;1395;-80
2022/06/07 10:10:40;;;;;;;;;;;;;;;23.24;31.44;97758.34;5103875;28;1697;-78
2022/06/07 10:13:06;;;;;;;;;;;;;;;23.00;31.38;97756.00;5043725;28;992;-79
2022/06/07 10:15:34;;;;;;;;;;;;;;;23.30;31.07;97762.97;5049662;28;1887;-79
2022/06/07 10:18:12;;;;;;;;;;;;;;;23.33;31.21;97755.59;5061008;28;2381;-78
2022/06/07 10:20:44;;;;;;;;;;;;;;;23.09;31.26;97749.56;5065739;28;891;-78
2022/06/07 10:23:28;;;;;;;;;;;;;;;23.18;30.69;97755.31;5064127;28;1902;-77
2022/06/07 10:25:59;;;;;;;;;;;;;;;22.99;30.76;97747.91;5029819;28;1150;-77
2022/06/07 10:28:36;;;;;;;;;;;;;;;23.24;30.25;97741.31;5042886;28;937;-78
2022/06/07 10:31:03;;;;;;;;;;;;;;;23.19;30.26;97739.88;5053956;28;1660;-82
2022/06/07 10:33:31;;;;;;;;;;;;;;;23.34;29.76;97723.88;5044669;28;2534;-70
2022/06/07 10:36:08;;;;;;;;;;;;;;;23.02;31.58;97725.09;5053120;28;2091;-70
2022/06/07 10:38:59;;;;;;;;;;;;;;;23.38;32.33;97726.59;5054654;28;1065;-72
2022/06/07 10:41:36;;;;;;;;;;;;;;;23.36;32.11;97727.06;5003567;28;1189;-78
2022/06/07 10:44:06;;;;;;;;;;;;;;;23.06;32.14;97724.97;5001405;28;2222;-78
2022/06/07 10:46:33;;;;;;;;;;;;;;;23.14;31.77;97720.59;4987775;28;942;-77
2022/06/07 10:49:19;;;;;;;;;;;;;;;23.26;31.31;97716.91;4987829;28;1005;-77
2022/06/07 10:54:38;;;;;;;;;;;;;;;23.13;30.51;97702.00;5025686;28;2220;-78
2022/06/07 10:57:07;;;;;;;;;;;;;;;23.55;30.57;97707.28;5037467;28;2600;-73
2022/06/07 10:59:33;;;;;;;;;;;;;;;24.03;30.35;97704.97;5021356;28;1070;-77
2022/06/07 11:02:13;;;;;;;;;;;;;;;24.24;30.40;97709.78;4999272;28;949;-77
2022/06/07 11:10:28;;;;;;;;;;;;;;;24.17;30.90;97704.41;4968896;28;916;-73
2022/06/07 11:12:58;;;;;;;;;;;;;;;23.93;31.16;97707.00;4961908;28;2296;-73
2022/06/07 11:15:41;;;;;;;;;;;;;;;23.66;31.72;97713.38;4958917;29;1750;-74
2022/06/07 11:18:09;;;;;;;;;;;;;;;23.68;32.74;97708.03;4975013;28;1656;-79
2022/06/07 11:20:35;;;;;;;;;;;;;;;23.87;32.63;97689.78;4980488;28;1787;-73
2022/06/07 11:23:02;;;;;;;;;;;;;;;24.02;32.73;97697.72;4974963;28;2033;-74
2022/06/07 11:25:53;;;;;;;;;;;;;;;24.03;32.61;97693.63;4994653;28;1213;-70
2022/06/07 11:28:24;;;;;;;;;;;;;;;24.17;32.87;97693.03;4917656;29;1007;-72
2022/06/07 11:30:52;;;;;;;;;;;;;;;23.97;33.18;97678.44;4901876;29;2209;-73
2022/06/07 11:33:30;;;;;;;;;;;;;;;23.88;33.32;97677.16;4916909;29;913;-71
2022/06/07 11:36:13;;;;;;;;;;;;;;;23.92;33.18;97674.16;4917319;29;947;-71
2022/06/07 11:38:57;;;;;;;;;;;;;;;24.32;32.73;97670.47;4923642;29;2433;-75
2022/06/07 11:41:37;;;;;;;;;;;;;;;24.45;32.84;97670.34;4955274;29;1147;-70
2022/06/07 11:44:23;;;;;;;;;;;;;;;24.56;32.74;97662.94;4955137;29;1955;-70
2022/06/07 11:46:51;;;;;;;;;;;;;;;24.60;32.31;97665.63;4917005;29;1147;-71
2022/06/07 11:49:23;;;;;;;;;;;;;;;24.43;33.30;97665.94;4917533;29;2238;-71
2022/06/07 11:52:07;;;;;;;;;;;;;;;24.69;32.36;97655.03;4931482;28;1011;-71
2022/06/07 11:54:50;;;;;;;;;;;;;;;24.53;32.95;97660.25;4975175;28;1609;-72
2022/06/07 11:57:35;;;;;;;;;;;;;;;24.35;32.96;97658.97;4956229;28;2039;-70
2022/06/07 12:00:00;;;;;;;;;;;;;;;24.32;33.16;97642.81;4954999;29;1025;-70
2022/06/07 12:02:33;;;;;;;;;;;;;;;23.91;34.35;97642.13;4955213;29;1985;-70
2022/06/07 12:05:16;;;;;;;;;;;;;;;24.10;34.13;97650.69;4987848;28;990;-71
2022/06/07 12:07:49;;;;;;;;;;;;;;;23.98;34.34;97651.59;4985465;28;2225;-70
2022/06/07 12:10:17;;;;;;;;;;;;;;;24.11;34.07;97638.06;4974126;28;1093;-71
2022/06/07 12:12:47;;;;;;;;;;;;;;;23.96;34.61;97637.09;4974207;28;955;-71
2022/06/07 12:15:38;;;;;;;;;;;;;;;23.88;34.71;97637.38;4990942;28;904;-72
2022/06/07 12:18:06;;;;;;;;;;;;;;;24.18;33.97;97643.44;4984164;28;2040;-72
2022/06/07 12:20:33;;;;;;;;;;;;;;;24.30;33.88;97642.53;4975900;28;952;-71
2022/06/07 12:23:03;;;;;;;;;;;;;;;24.21;34.00;97651.03;5003550;28;1906;-71
2022/06/07 12:25:35;;;;;;;;;;;;;;;24.20;34.03;97638.09;5117186;28;953;-71
2022/06/07 12:28:00;;;;;;;;;;;;;;;24.29;34.17;97643.75;5090715;28;2214;-73
2022/06/07 12:30:27;;;;;;;;;;;;;;;24.32;33.70;97631.44;5097936;28;983;-74
2022/06/07 12:32:54;;;;;;;;;;;;;;;24.73;33.94;97632.13;5097333;28;1009;-72
2022/06/07 12:35:22;;;;;;;;;;;;;;;24.32;34.12;97628.59;5096957;28;1106;-71
2022/06/07 12:37:50;;;;;;;;;;;;;;;24.30;34.11;97627.50;5096712;28;2193;-71
2022/06/07 12:40:36;;;;;;;;;;;;;;;24.28;34.14;97630.81;5097066;28;1953;-73
2022/06/07 12:43:01;;;;;;;;;;;;;;;24.31;34.42;97617.72;5036740;28;1917;-72
2022/06/07 12:45:33;;;;;;;;;;;;;;;24.70;33.62;97627.38;5020841;28;1010;-77
2022/06/07 12:48:00;;;;;;;;;;;;;;;24.68;33.19;97618.53;5036445;28;1036;-77
2022/06/07 12:50:33;;;;;;;;;;;;;;;24.67;33.00;97605.56;5048076;28;2266;-74
2022/06/07 12:52:59;;;;;;;;;;;;;;;24.66;33.16;97609.69;5057481;28;966;-77
2022/06/07 12:55:31;;;;;;;;;;;;;;;24.37;33.57;97605.25;5054171;28;1017;-76
2022/06/07 12:58:00;;;;;;;;;;;;;;;24.58;33.26;97602.72;5033333;28;2210;-76
2022/06/07 13:00:46;;;;;;;;;;;;;;;24.68;32.61;97607.16;5017059;28;933;-74
2022/06/07 13:03:19;;;;;;;;;;;;;;;24.63;32.94;97644.78;5016885;28;1887;-75
2022/06/07 13:05:45;;;;;;;;;;;;;;;24.48;32.82;97621.06;5016967;28;2168;-79
2022/06/07 13:08:18;;;;;;;;;;;;;;;24.55;32.84;97595.13;5012501;28;1873;-69
2022/06/07 13:10:44;;;;;;;;;;;;;;;24.36;33.13;97583.78;4971417;28;1872;-82
2022/06/07 13:13:16;;;;;;;;;;;;;;;24.06;33.21;97601.72;4975743;28;1058;-76
2022/06/07 13:15:59;;;;;;;;;;;;;;;23.89;32.70;97602.03;4957880;28;969;-77
2022/06/07 13:18:44;;;;;;;;;;;;;;;23.90;32.75;97606.44;4968820;28;2183;-76
2022/06/07 13:21:09;;;;;;;;;;;;;;;24.25;32.88;97603.34;5007324;28;2103;-70
2022/06/07 13:23:38;;;;;;;;;;;;;;;24.34;32.67;97603.31;5001899;28;2187;-70
2022/06/07 13:26:15;;;;;;;;;;;;;;;23.95;33.48;97601.41;4979696;28;1819;-76
2022/06/07 13:28:41;;;;;;;;;;;;;;;23.88;32.57;97594.78;4989137;28;1752;-76
2022/06/07 13:31:25;;;;;;;;;;;;;;;23.73;32.32;97596.63;5008073;28;1812;-77
2022/06/07 13:34:04;;;;;;;;;;;;;;;23.56;32.13;97609.47;4995837;28;1848;-76
2022/06/07 13:36:31;;;;;;;;;;;;;;;23.46;31.88;97631.34;5009558;28;2228;-76
2022/06/07 13:38:57;;;;;;;;;;;;;;;23.32;31.87;97629.88;5010751;28;2203;-76
2022/06/07 13:41:23;;;;;;;;;;;;;;;23.42;31.19;97627.09;5011729;28;2107;-76
2022/06/07 13:43:53;;;;;;;;;;;;;;;23.26;31.50;97617.56;5075051;28;1894;-76